Time;durP1;ratioP1;P1;durP2;ratioP2;P2;SDS_P1;SDS_P2;PMS_P1;PMS_P2;Temp;Humidity;BMP_temperature;BMP_pressure;BME280_temperature;BME280_humidity;BME280_pressure;Samples;Min_cycle;Max_cycle;Signal;HPM_P1;HPM_P2
2022/11/27 00:00:48;;;;;;;133.88;34.80;;;2.50;99.90;;;;;;6116079;23;20229;-76
2022/11/27 00:03:15;;;;;;;121.93;36.28;;;2.50;99.90;;;;;;6112411;23;20282;-76
2022/11/27 00:05:51;;;;;;;56.35;25.42;;;2.50;99.90;;;;;;6115937;23;20195;-76
2022/11/27 00:08:18;;;;;;;39.40;25.50;;;2.50;99.90;;;;;;6114263;23;20291;-76
2022/11/27 00:10:45;;;;;;;49.17;25.42;;;2.60;99.90;;;;;;6108960;23;20279;-76
2022/11/27 00:13:13;;;;;;;82.57;28.33;;;2.60;99.90;;;;;;6117215;23;20674;-76
2022/11/27 00:15:40;;;;;;;70.68;27.08;;;2.50;99.90;;;;;;6091607;23;20189;-76
2022/11/27 00:18:09;;;;;;;46.60;24.70;;;2.50;99.90;;;;;;6108624;23;20199;-76
2022/11/27 00:20:36;;;;;;;38.78;26.38;;;2.40;99.90;;;;;;6116255;23;20212;-76
2022/11/27 00:23:03;;;;;;;35.95;26.55;;;2.30;99.90;;;;;;6117065;23;20279;-76
2022/11/27 00:25:31;;;;;;;30.77;25.45;;;2.20;99.90;;;;;;6109613;23;20915;-76
2022/11/27 00:27:58;;;;;;;27.67;23.63;;;2.20;99.90;;;;;;6113509;23;20189;-76
2022/11/27 00:30:25;;;;;;;32.17;23.95;;;2.30;99.90;;;;;;6118228;23;20203;-76
2022/11/27 00:32:52;;;;;;;34.60;26.38;;;2.20;99.90;;;;;;6099313;23;20592;-76
2022/11/27 00:35:20;;;;;;;27.05;24.05;;;2.30;99.90;;;;;;6095470;23;20268;-76
2022/11/27 00:37:48;;;;;;;28.23;23.00;;;2.20;99.90;;;;;;6113719;23;20197;-76
2022/11/27 00:40:15;;;;;;;26.20;23.38;;;2.30;99.90;;;;;;6112689;23;20221;-76
2022/11/27 00:42:42;;;;;;;26.63;23.23;;;2.20;99.90;;;;;;6114961;23;20235;-76
2022/11/27 00:45:10;;;;;;;27.42;22.52;;;2.30;99.90;;;;;;6109867;23;20688;-76
2022/11/27 00:47:37;;;;;;;33.53;25.50;;;2.30;99.90;;;;;;6111982;23;20191;-76
2022/11/27 00:50:06;;;;;;;27.23;22.48;;;2.30;99.90;;;;;;6114202;23;20199;-76
2022/11/27 00:52:35;;;;;;;25.27;22.15;;;2.30;99.90;;;;;;6117750;23;20253;-76
2022/11/27 00:55:03;;;;;;;24.17;21.58;;;2.30;99.90;;;;;;6113346;23;20200;-76
2022/11/27 00:57:30;;;;;;;27.02;24.17;;;2.30;99.90;;;;;;6134452;23;20641;-76
2022/11/27 00:59:57;;;;;;;27.60;22.80;;;2.30;99.90;;;;;;6116956;23;20246;-77
2022/11/27 01:02:25;;;;;;;33.33;26.58;;;2.30;99.90;;;;;;6113682;23;20254;-77
2022/11/27 01:04:52;;;;;;;28.38;23.63;;;2.30;99.90;;;;;;6116560;23;20252;-77
2022/11/27 01:07:19;;;;;;;30.27;23.65;;;2.30;99.90;;;;;;6112784;23;20252;-76
2022/11/27 01:09:48;;;;;;;26.15;23.40;;;2.20;99.90;;;;;;6097499;23;20283;-76
2022/11/27 01:12:15;;;;;;;30.13;23.92;;;2.30;99.90;;;;;;6112661;23;20245;-76
2022/11/27 01:14:42;;;;;;;26.10;22.73;;;2.20;99.90;;;;;;6113961;23;20321;-77
2022/11/27 01:17:09;;;;;;;28.65;23.50;;;2.20;99.90;;;;;;6113544;23;20192;-76
2022/11/27 01:19:37;;;;;;;25.27;22.65;;;2.20;99.90;;;;;;6116017;23;20224;-76
2022/11/27 01:22:04;;;;;;;22.85;20.67;;;2.20;99.90;;;;;;6115168;23;20210;-76
2022/11/27 01:24:32;;;;;;;26.52;22.40;;;2.10;99.90;;;;;;6117249;23;20272;-76
2022/11/27 01:27:00;;;;;;;25.35;22.13;;;2.10;99.90;;;;;;6115134;23;20282;-76
2022/11/27 01:29:27;;;;;;;25.60;21.15;;;2.00;99.90;;;;;;6114671;23;20221;-76
2022/11/27 01:31:55;;;;;;;21.90;19.70;;;2.00;99.90;;;;;;6118776;23;20199;-76
2022/11/27 01:34:23;;;;;;;23.17;20.65;;;2.00;99.90;;;;;;6115209;23;20218;-76
2022/11/27 01:36:50;;;;;;;28.30;23.95;;;2.00;99.90;;;;;;6118136;23;20192;-76
2022/11/27 01:39:19;;;;;;;24.88;22.33;;;2.00;99.90;;;;;;6113365;23;20195;-76
2022/11/27 01:41:49;;;;;;;27.00;21.27;;;2.00;99.90;;;;;;6117239;23;20226;-76
2022/11/27 01:44:48;;;;;;;25.95;22.88;;;1.90;99.90;;;;;;6114102;23;20247;-76
2022/11/27 01:47:25;;;;;;;24.60;19.75;;;1.90;99.90;;;;;;6113565;23;20202;-76
2022/11/27 01:49:55;;;;;;;25.95;22.58;;;1.80;99.90;;;;;;6115974;23;20347;-76
2022/11/27 01:52:27;;;;;;;23.85;21.45;;;1.80;99.90;;;;;;6116805;23;20206;-76
2022/11/27 01:55:00;;;;;;;27.10;22.90;;;1.80;99.90;;;;;;6110328;23;20250;-76
2022/11/27 01:57:34;;;;;;;22.63;20.23;;;1.80;99.90;;;;;;6112807;23;20187;-76
2022/11/27 02:00:06;;;;;;;22.88;20.58;;;1.70;99.90;;;;;;6118246;23;20196;-76
2022/11/27 02:02:33;;;;;;;26.35;21.42;;;1.60;99.90;;;;;;6115871;23;20529;-76
2022/11/27 02:05:00;;;;;;;29.83;21.13;;;1.50;99.90;;;;;;6112847;23;20199;-76
2022/11/27 02:07:27;;;;;;;22.65;20.25;;;1.60;99.90;;;;;;6111184;23;20192;-76
2022/11/27 02:09:54;;;;;;;23.92;21.35;;;1.50;99.90;;;;;;6118746;23;20283;-76
2022/11/27 02:12:25;;;;;;;26.10;21.98;;;1.50;99.90;;;;;;6112597;23;21007;-76
2022/11/27 02:15:00;;;;;;;34.35;24.75;;;1.50;99.90;;;;;;6116026;23;20237;-76
2022/11/27 02:17:37;;;;;;;23.20;20.33;;;1.50;99.90;;;;;;6116167;23;20269;-76
2022/11/27 02:20:25;;;;;;;30.50;24.58;;;1.50;99.90;;;;;;6118350;23;20591;-76
2022/11/27 02:23:09;;;;;;;25.35;22.65;;;1.50;99.90;;;;;;6114071;23;20281;-76
2022/11/27 02:25:51;;;;;;;35.55;26.50;;;1.50;99.90;;;;;;6114268;23;20211;-76
2022/11/27 02:28:31;;;;;;;29.20;23.75;;;1.50;99.90;;;;;;6117555;23;20200;-76
2022/11/27 02:31:06;;;;;;;23.98;21.38;;;1.60;99.90;;;;;;6116841;23;20199;-76
2022/11/27 02:33:38;;;;;;;30.13;22.85;;;1.60;99.90;;;;;;6113600;23;20616;-76
2022/11/27 02:36:10;;;;;;;29.50;23.83;;;1.50;99.90;;;;;;6111431;23;20241;-75
2022/11/27 02:38:41;;;;;;;26.48;22.02;;;1.60;99.90;;;;;;6112868;23;20213;-76
2022/11/27 02:41:13;;;;;;;32.78;24.23;;;1.60;99.90;;;;;;6111900;23;20540;-76
2022/11/27 02:43:42;;;;;;;32.67;25.25;;;1.60;99.90;;;;;;6113624;23;20545;-77
2022/11/27 02:46:13;;;;;;;31.77;23.60;;;1.60;99.90;;;;;;6112865;23;20215;-76
2022/11/27 02:48:44;;;;;;;26.58;21.27;;;1.60;99.90;;;;;;6117354;23;20602;-76
2022/11/27 02:51:13;;;;;;;33.03;23.85;;;1.60;99.90;;;;;;6115062;23;20195;-76
2022/11/27 02:53:47;;;;;;;27.67;23.25;;;1.60;99.90;;;;;;6110827;23;20191;-76
2022/11/27 02:56:18;;;;;;;24.98;21.83;;;1.60;99.90;;;;;;6114746;23;20250;-76
2022/11/27 02:58:46;;;;;;;26.00;21.13;;;1.60;99.90;;;;;;6114105;23;20656;-76
2022/11/27 03:01:18;;;;;;;29.98;23.08;;;1.50;99.90;;;;;;6117703;23;20226;-76
2022/11/27 03:03:49;;;;;;;26.75;21.48;;;1.50;99.90;;;;;;6115507;23;20278;-76
2022/11/27 03:06:22;;;;;;;24.80;20.42;;;1.50;99.90;;;;;;6116251;23;20292;-76
2022/11/27 03:08:54;;;;;;;27.40;22.08;;;1.50;99.90;;;;;;6112378;23;20195;-76
2022/11/27 03:11:21;;;;;;;24.50;21.10;;;1.50;99.90;;;;;;6115825;23;20287;-76
2022/11/27 03:13:50;;;;;;;27.67;22.70;;;1.50;99.90;;;;;;6113652;23;20276;-76
2022/11/27 03:16:28;;;;;;;24.58;20.10;;;1.50;99.90;;;;;;6116517;23;20394;-76
2022/11/27 03:19:00;;;;;;;23.75;21.23;;;1.50;99.90;;;;;;6113501;23;20781;-76
2022/11/27 03:21:32;;;;;;;22.60;20.20;;;1.50;99.90;;;;;;6114802;23;20245;-76
2022/11/27 03:24:00;;;;;;;22.80;19.75;;;1.50;99.90;;;;;;6092768;23;20192;-76
2022/11/27 03:26:27;;;;;;;23.02;20.63;;;1.40;99.90;;;;;;6118331;23;20246;-76
2022/11/27 03:28:56;;;;;;;30.85;24.83;;;1.40;99.90;;;;;;6113597;23;20193;-76
2022/11/27 03:31:26;;;;;;;29.85;21.80;;;1.40;99.90;;;;;;6116490;23;20188;-76
2022/11/27 03:33:54;;;;;;;23.55;20.05;;;1.40;99.90;;;;;;6105550;23;20215;-77
2022/11/27 03:36:22;;;;;;;40.20;24.25;;;1.30;99.90;;;;;;6112652;23;20392;-77
2022/11/27 03:38:52;;;;;;;27.85;21.67;;;1.30;99.90;;;;;;6108857;23;20200;-77
2022/11/27 03:41:26;;;;;;;23.23;20.42;;;1.30;99.90;;;;;;6113898;23;20192;-77
2022/11/27 03:44:00;;;;;;;116.18;25.05;;;1.30;99.90;;;;;;6116890;23;20216;-77
2022/11/27 03:46:39;;;;;;;72.05;21.65;;;1.20;99.90;;;;;;6114144;23;20294;-77
2022/11/27 03:49:17;;;;;;;65.88;21.48;;;1.20;99.90;;;;;;6112662;23;20183;-77
2022/11/27 03:51:55;;;;;;;86.60;23.63;;;1.10;99.90;;;;;;6116903;23;20551;-77
2022/11/27 03:54:32;;;;;;;48.45;21.02;;;1.00;99.90;;;;;;6111907;23;20207;-77
2022/11/27 03:57:06;;;;;;;105.60;23.75;;;1.00;99.90;;;;;;6109597;23;20206;-77
2022/11/27 03:59:38;;;;;;;108.60;26.48;;;0.90;99.90;;;;;;6114297;23;20195;-77
2022/11/27 04:02:12;;;;;;;94.25;24.48;;;0.90;99.90;;;;;;6102598;23;20491;-77
2022/11/27 04:04:39;;;;;;;114.45;27.77;;;0.90;99.90;;;;;;6116330;23;20191;-77
2022/11/27 04:07:07;;;;;;;37.38;20.70;;;0.80;99.90;;;;;;6114624;23;20282;-77
2022/11/27 04:09:34;;;;;;;38.00;21.27;;;0.80;99.90;;;;;;6111273;23;20207;-77
2022/11/27 04:12:01;;;;;;;35.90;22.10;;;0.80;99.90;;;;;;6113719;23;20191;-77
2022/11/27 04:14:28;;;;;;;35.42;23.38;;;0.80;99.90;;;;;;6117773;23;20665;-77
2022/11/27 04:16:55;;;;;;;23.00;20.30;;;0.80;99.90;;;;;;6116428;23;20284;-77
2022/11/27 04:19:23;;;;;;;40.55;20.90;;;0.80;99.90;;;;;;6117948;23;20201;-77
2022/11/27 04:21:51;;;;;;;29.70;20.35;;;0.70;99.90;;;;;;6116385;23;20285;-77
2022/11/27 04:24:18;;;;;;;29.05;21.50;;;0.70;99.90;;;;;;6110161;23;20215;-77
2022/11/27 04:26:45;;;;;;;47.88;25.65;;;1.00;99.90;;;;;;6102410;23;20212;-77
2022/11/27 04:29:12;;;;;;;36.22;22.98;;;0.70;99.90;;;;;;6116265;23;20214;-77
2022/11/27 04:31:39;;;;;;;30.92;22.15;;;0.70;99.90;;;;;;6114933;23;20195;-77
2022/11/27 04:34:06;;;;;;;24.75;21.75;;;0.70;99.90;;;;;;6115096;23;20196;-77
2022/11/27 04:36:35;;;;;;;38.45;24.45;;;0.70;99.90;;;;;;6112132;23;20291;-77
2022/11/27 04:39:02;;;;;;;31.08;23.73;;;0.80;99.90;;;;;;6114604;23;20204;-77
2022/11/27 04:41:30;;;;;;;60.78;25.02;;;0.80;99.90;;;;;;6113862;23;20206;-77
2022/11/27 04:43:57;;;;;;;25.33;21.88;;;0.80;99.90;;;;;;6108134;23;20310;-77
2022/11/27 04:46:24;;;;;;;52.45;25.48;;;0.80;99.90;;;;;;6114600;23;20764;-76
2022/11/27 04:48:51;;;;;;;58.92;25.40;;;0.80;99.90;;;;;;6089067;23;20528;-76
2022/11/27 04:51:19;;;;;;;26.00;21.45;;;0.80;99.90;;;;;;6117885;23;20533;-76
2022/11/27 04:53:47;;;;;;;24.70;20.98;;;0.80;99.90;;;;;;6108507;23;20188;-76
2022/11/27 04:56:14;;;;;;;43.38;21.52;;;0.80;99.90;;;;;;6110178;23;20218;-76
2022/11/27 04:58:42;;;;;;;75.25;24.77;;;0.80;99.90;;;;;;6116232;23;20206;-76
2022/11/27 05:01:09;;;;;;;21.42;19.17;;;0.80;99.90;;;;;;6115637;23;20660;-76
2022/11/27 05:03:36;;;;;;;23.27;20.55;;;0.70;99.90;;;;;;6111288;23;20275;-75
2022/11/27 05:06:04;;;;;;;92.18;25.17;;;0.80;99.90;;;;;;6112965;23;20216;-76
2022/11/27 05:08:32;;;;;;;41.60;21.48;;;0.80;99.90;;;;;;6114850;23;20503;-75
2022/11/27 05:11:03;;;;;;;73.60;22.80;;;0.70;99.90;;;;;;6119275;23;20199;-76
2022/11/27 05:13:30;;;;;;;76.55;23.25;;;0.80;99.90;;;;;;6114206;23;20687;-76
2022/11/27 05:15:57;;;;;;;84.25;25.73;;;0.80;99.90;;;;;;6101350;23;20192;-76
2022/11/27 05:18:25;;;;;;;67.03;22.42;;;0.70;99.90;;;;;;6117721;23;20296;-76
2022/11/27 05:20:56;;;;;;;37.70;20.25;;;0.70;99.90;;;;;;6090304;23;20188;-76
2022/11/27 05:23:23;;;;;;;57.88;23.25;;;0.70;99.90;;;;;;6116466;23;20188;-76
2022/11/27 05:25:50;;;;;;;29.73;21.83;;;0.70;99.90;;;;;;6111308;23;20265;-76
2022/11/27 05:28:20;;;;;;;35.83;19.75;;;0.70;99.90;;;;;;6116033;23;20281;-76
2022/11/27 05:30:47;;;;;;;22.13;18.33;;;0.70;99.90;;;;;;6111029;23;20217;-76
2022/11/27 05:33:15;;;;;;;52.78;19.40;;;0.70;99.90;;;;;;6115596;23;20204;-76
2022/11/27 05:35:42;;;;;;;31.83;20.08;;;0.60;99.90;;;;;;6114730;23;20645;-76
2022/11/27 05:38:10;;;;;;;97.32;23.40;;;0.60;99.90;;;;;;6112844;23;20195;-76
2022/11/27 05:40:38;;;;;;;23.17;18.45;;;0.60;99.90;;;;;;6114446;23;20211;-76
2022/11/27 05:43:06;;;;;;;42.10;19.98;;;0.60;99.90;;;;;;6116631;23;20273;-76
2022/11/27 05:45:34;;;;;;;20.77;18.60;;;0.60;99.90;;;;;;6114851;23;20705;-76
2022/11/27 05:48:01;;;;;;;32.75;19.10;;;0.50;99.90;;;;;;6115052;23;20278;-75
2022/11/27 05:50:29;;;;;;;18.75;16.85;;;0.50;99.90;;;;;;6116610;23;20226;-76
2022/11/27 05:52:56;;;;;;;19.63;17.30;;;0.50;99.90;;;;;;6115192;23;20275;-76
2022/11/27 05:55:23;;;;;;;36.95;16.75;;;0.50;99.90;;;;;;6116015;23;20266;-76
2022/11/27 05:57:51;;;;;;;43.70;21.30;;;0.50;99.90;;;;;;6116509;23;20293;-77
2022/11/27 06:00:18;;;;;;;53.53;25.75;;;0.40;99.90;;;;;;6116589;23;20195;-76
2022/11/27 06:02:46;;;;;;;23.00;19.05;;;0.40;99.90;;;;;;6115902;23;20667;-76
2022/11/27 06:05:14;;;;;;;20.77;17.95;;;0.40;99.90;;;;;;6113743;23;20191;-76
2022/11/27 06:07:41;;;;;;;22.08;18.60;;;0.40;99.90;;;;;;6116165;23;20250;-76
2022/11/27 06:10:09;;;;;;;68.50;23.33;;;0.40;99.90;;;;;;6113590;23;20355;-76
2022/11/27 06:12:36;;;;;;;38.08;18.48;;;0.40;99.90;;;;;;6116101;23;20546;-76
2022/11/27 06:15:04;;;;;;;58.15;21.13;;;0.40;99.90;;;;;;6113214;23;20259;-76
2022/11/27 06:17:31;;;;;;;33.80;18.25;;;0.40;99.90;;;;;;6114911;23;20234;-76
2022/11/27 06:20:00;;;;;;;27.13;18.30;;;0.40;99.90;;;;;;6117906;23;20203;-76
2022/11/27 06:22:27;;;;;;;30.67;17.92;;;0.30;99.90;;;;;;6113428;23;20211;-76
2022/11/27 06:24:54;;;;;;;37.80;20.05;;;0.30;99.90;;;;;;6102815;23;20202;-76
2022/11/27 06:27:23;;;;;;;27.48;17.77;;;0.20;99.90;;;;;;6118262;23;20227;-76
2022/11/27 06:29:51;;;;;;;32.78;20.80;;;0.30;99.90;;;;;;6117718;23;20195;-76
2022/11/27 06:32:19;;;;;;;18.02;16.13;;;0.20;99.90;;;;;;6116859;23;20199;-76
2022/11/27 06:34:46;;;;;;;33.92;20.08;;;0.20;99.90;;;;;;6108582;23;20208;-76
2022/11/27 06:37:15;;;;;;;29.90;18.60;;;0.20;99.90;;;;;;6115938;23;20196;-76
2022/11/27 06:39:42;;;;;;;48.28;18.45;;;0.20;99.90;;;;;;6108284;23;20286;-76
2022/11/27 06:42:12;;;;;;;31.33;18.50;;;0.20;99.90;;;;;;6108568;23;20223;-78
2022/11/27 06:44:39;;;;;;;23.85;17.90;;;0.10;99.90;;;;;;6118311;23;20230;-76
2022/11/27 06:47:06;;;;;;;18.42;16.33;;;0.10;99.90;;;;;;6110663;23;20587;-77
2022/11/27 06:49:35;;;;;;;21.98;18.02;;;0.10;99.90;;;;;;6103138;23;20722;-76
2022/11/27 06:52:03;;;;;;;18.80;16.80;;;0.10;99.90;;;;;;6110606;23;20184;-76
2022/11/27 06:54:32;;;;;;;19.67;17.02;;;0.10;99.90;;;;;;6108350;23;20193;-77
2022/11/27 06:57:00;;;;;;;29.80;20.75;;;0.10;99.90;;;;;;6113450;23;20267;-76
2022/11/27 06:59:27;;;;;;;19.95;17.85;;;0.10;99.90;;;;;;6115745;23;20191;-76
2022/11/27 07:01:54;;;;;;;24.42;18.88;;;0.10;99.90;;;;;;6114440;23;20196;-76
2022/11/27 07:04:22;;;;;;;21.20;17.85;;;0.10;99.90;;;;;;6113652;23;20188;-76
2022/11/27 07:06:49;;;;;;;43.72;21.00;;;0.20;99.90;;;;;;6112299;23;20643;-76
2022/11/27 07:09:16;;;;;;;23.80;19.42;;;0.10;99.90;;;;;;6105933;23;21048;-79
2022/11/27 07:11:45;;;;;;;20.65;18.02;;;0.10;99.90;;;;;;6113252;23;20191;-76
2022/11/27 07:14:12;;;;;;;23.23;20.25;;;0.10;99.90;;;;;;6114368;23;20859;-76
2022/11/27 07:16:41;;;;;;;21.58;18.35;;;0.10;99.90;;;;;;6116798;23;20184;-76
2022/11/27 07:19:08;;;;;;;25.27;19.10;;;0.10;99.90;;;;;;6115209;23;20233;-76
2022/11/27 07:21:37;;;;;;;19.77;17.77;;;0.10;99.90;;;;;;6142150;23;20176;-76
2022/11/27 07:24:04;;;;;;;22.40;19.95;;;0.10;99.90;;;;;;6128031;23;20287;-74
2022/11/27 07:26:32;;;;;;;23.17;20.08;;;0.20;99.90;;;;;;6131967;23;20224;-74
2022/11/27 07:29:01;;;;;;;21.70;18.40;;;0.20;99.90;;;;;;6136391;23;20198;-75
2022/11/27 07:31:29;;;;;;;22.13;19.08;;;0.20;99.90;;;;;;6124535;23;20183;-75
2022/11/27 07:33:56;;;;;;;24.20;20.40;;;0.20;99.90;;;;;;6121660;23;20218;-74
2022/11/27 07:36:26;;;;;;;21.02;18.92;;;0.30;99.90;;;;;;6129687;23;20187;-75
2022/11/27 07:38:53;;;;;;;20.60;18.50;;;0.40;99.90;;;;;;6124298;23;20215;-75
2022/11/27 07:41:23;;;;;;;20.58;18.20;;;0.50;99.90;;;;;;6132190;23;20191;-75
2022/11/27 07:43:50;;;;;;;19.95;18.00;;;0.50;99.90;;;;;;6099572;23;20249;-75
2022/11/27 07:46:20;;;;;;;19.65;17.65;;;0.60;99.90;;;;;;6103663;23;20218;-75
2022/11/27 07:48:50;;;;;;;19.30;17.40;;;0.70;99.90;;;;;;6128842;23;20199;-79
2022/11/27 07:51:20;;;;;;;19.40;17.40;;;0.80;99.90;;;;;;6126516;23;20192;-77
2022/11/27 07:53:47;;;;;;;19.42;17.40;;;1.00;99.90;;;;;;6126594;23;20188;-75
2022/11/27 07:56:15;;;;;;;21.60;18.88;;;1.00;99.90;;;;;;6130965;23;20261;-76
2022/11/27 07:58:43;;;;;;;18.83;16.92;;;1.10;99.90;;;;;;6131364;23;20247;-77
2022/11/27 08:01:12;;;;;;;19.23;16.90;;;1.10;99.90;;;;;;6118261;23;20278;-76
2022/11/27 08:03:42;;;;;;;18.92;16.58;;;1.10;99.90;;;;;;6136529;23;20214;-76
2022/11/27 08:06:15;;;;;;;22.10;18.90;;;1.20;99.90;;;;;;6125785;23;20212;-76
2022/11/27 08:08:42;;;;;;;19.30;17.27;;;1.10;99.90;;;;;;6120271;23;20187;-76
2022/11/27 08:11:16;;;;;;;18.50;16.58;;;1.10;99.90;;;;;;6102088;23;20199;-75
2022/11/27 08:13:44;;;;;;;19.42;17.33;;;1.00;99.90;;;;;;6112748;23;20196;-77
2022/11/27 08:16:12;;;;;;;20.25;18.05;;;1.10;99.90;;;;;;6113730;23;20705;-75
2022/11/27 08:18:39;;;;;;;21.10;18.25;;;1.10;99.90;;;;;;6114684;23;20225;-74
2022/11/27 08:21:23;;;;;;;19.05;17.05;;;1.20;99.90;;;;;;6125395;23;21662;-82
2022/11/27 08:23:51;;;;;;;18.90;17.10;;;1.20;99.90;;;;;;6133344;23;20188;-85
2022/11/27 08:26:19;;;;;;;19.70;17.65;;;1.30;99.90;;;;;;6124048;23;20211;-84
2022/11/27 08:28:47;;;;;;;17.30;15.25;;;1.50;99.90;;;;;;6111750;23;20262;-83
2022/11/27 08:31:15;;;;;;;18.80;17.02;;;1.60;99.90;;;;;;6114222;23;20191;-82
2022/11/27 08:33:42;;;;;;;16.63;14.93;;;1.80;99.90;;;;;;6115860;23;20188;-81
2022/11/27 08:36:11;;;;;;;15.20;13.80;;;2.10;99.90;;;;;;6113532;23;20194;-81
2022/11/27 08:38:40;;;;;;;14.98;13.55;;;2.30;99.90;;;;;;6119808;23;20258;-79
2022/11/27 08:41:09;;;;;;;14.10;12.45;;;2.50;99.90;;;;;;6121602;23;20674;-82
2022/11/27 08:43:36;;;;;;;14.32;12.82;;;2.60;99.90;;;;;;6129210;23;20203;-80
2022/11/27 08:46:04;;;;;;;15.05;13.65;;;2.70;99.90;;;;;;6130942;23;20205;-81
2022/11/27 08:48:31;;;;;;;14.40;13.00;;;2.90;99.90;;;;;;6124488;23;20245;-81
2022/11/27 08:50:59;;;;;;;11.38;10.38;;;3.30;99.90;;;;;;6127630;23;20188;-84
2022/11/27 08:53:26;;;;;;;9.60;8.73;;;3.80;99.90;;;;;;6141326;23;20545;-83
2022/11/27 08:55:55;;;;;;;9.70;8.90;;;4.50;99.90;;;;;;6122859;23;20195;-70
2022/11/27 08:58:22;;;;;;;9.60;8.80;;;5.10;99.90;;;;;;6122438;23;20196;-72
2022/11/27 09:00:49;;;;;;;8.70;8.00;;;5.70;99.90;;;;;;6107444;23;20187;-76
2022/11/27 09:03:23;;;;;;;9.05;8.35;;;5.80;99.90;;;;;;6106838;23;20195;-72
2022/11/27 09:05:56;;;;;;;8.70;7.90;;;6.00;99.90;;;;;;6113548;23;20195;-72
2022/11/27 09:08:24;;;;;;;7.20;6.60;;;6.40;99.90;;;;;;6113945;23;20358;-72
2022/11/27 09:10:52;;;;;;;6.55;6.05;;;7.00;99.90;;;;;;6109610;23;20199;-72
2022/11/27 09:13:22;;;;;;;6.43;5.85;;;7.50;99.90;;;;;;6108344;23;20206;-72
2022/11/27 09:15:51;;;;;;;5.93;5.43;;;7.30;99.90;;;;;;6111505;23;20192;-72
2022/11/27 09:18:18;;;;;;;5.68;5.18;;;7.10;99.90;;;;;;6107518;23;20207;-72
2022/11/27 09:20:46;;;;;;;6.00;5.55;;;6.80;99.90;;;;;;6116453;23;20195;-71
2022/11/27 09:23:15;;;;;;;6.32;5.25;;;6.80;99.90;;;;;;6112905;23;20210;-72
2022/11/27 09:25:43;;;;;;;6.15;5.65;;;6.60;99.90;;;;;;6118791;23;20214;-72
2022/11/27 09:28:10;;;;;;;6.32;5.72;;;6.40;99.90;;;;;;6116411;23;20207;-72
2022/11/27 09:30:39;;;;;;;6.07;5.53;;;6.20;99.90;;;;;;6115769;23;20502;-74
2022/11/27 09:33:06;;;;;;;6.40;5.80;;;5.70;99.90;;;;;;6115798;23;20218;-73
2022/11/27 09:35:33;;;;;;;6.45;5.95;;;5.30;99.90;;;;;;6116664;23;20198;-72
2022/11/27 09:38:00;;;;;;;6.60;6.00;;;5.10;99.90;;;;;;6115100;23;20179;-72
2022/11/27 09:40:27;;;;;;;7.28;6.53;;;5.00;99.90;;;;;;6112522;23;20219;-72
2022/11/27 09:42:57;;;;;;;8.27;7.47;;;5.10;99.90;;;;;;6118388;23;20218;-71
2022/11/27 09:45:26;;;;;;;7.03;6.43;;;5.10;99.90;;;;;;6111259;23;20279;-72
2022/11/27 09:47:59;;;;;;;6.45;5.85;;;5.20;99.90;;;;;;6116521;23;20271;-72
2022/11/27 09:50:29;;;;;;;6.38;5.80;;;5.30;99.90;;;;;;6114549;23;20179;-72
2022/11/27 09:53:01;;;;;;;6.40;5.90;;;5.20;99.90;;;;;;6108279;23;20191;-72
2022/11/27 09:55:34;;;;;;;6.90;6.20;;;5.20;99.90;;;;;;6117716;23;20592;-72
2022/11/27 09:58:05;;;;;;;7.32;6.72;;;5.60;99.90;;;;;;6111461;23;20588;-73
2022/11/27 10:00:34;;;;;;;7.60;6.88;;;6.00;99.90;;;;;;6113939;23;20707;-72
2022/11/27 10:03:03;;;;;;;7.90;7.10;;;5.90;99.90;;;;;;6115332;23;20617;-72
2022/11/27 10:05:37;;;;;;;7.50;6.90;;;5.70;99.90;;;;;;6106519;23;20183;-72
2022/11/27 10:08:26;;;;;;;8.40;7.70;;;5.70;99.90;;;;;;6114745;23;20276;-72
2022/11/27 10:11:06;;;;;;;8.50;7.80;;;5.70;99.90;;;;;;6114393;23;20195;-72
2022/11/27 10:13:48;;;;;;;7.95;7.35;;;5.70;99.90;;;;;;6113226;23;20275;-71
2022/11/27 10:16:24;;;;;;;8.45;7.60;;;5.80;99.90;;;;;;6108494;23;20285;-72
2022/11/27 10:18:57;;;;;;;8.00;7.30;;;5.70;99.90;;;;;;6111527;23;20187;-72
2022/11/27 10:21:33;;;;;;;7.35;6.63;;;5.60;99.90;;;;;;6108737;23;20192;-72
2022/11/27 10:24:09;;;;;;;7.93;7.20;;;5.70;99.90;;;;;;6114694;23;20187;-72
2022/11/27 10:26:40;;;;;;;7.10;6.50;;;5.70;99.90;;;;;;6111507;23;20199;-72
2022/11/27 10:29:20;;;;;;;6.70;6.20;;;5.90;99.90;;;;;;6109986;23;20184;-72
2022/11/27 10:31:50;;;;;;;6.43;5.93;;;6.30;99.90;;;;;;6107512;23;20203;-72
2022/11/27 10:34:27;;;;;;;6.45;5.95;;;6.90;99.90;;;;;;6110587;23;20516;-79
2022/11/27 10:36:56;;;;;;;5.88;5.45;;;7.50;99.90;;;;;;6106112;23;20270;-73
2022/11/27 10:39:34;;;;;;;6.68;6.10;;;8.00;99.90;;;;;;6108827;23;20651;-72
2022/11/27 10:42:07;;;;;;;7.13;6.43;;;8.20;99.90;;;;;;6111418;23;20632;-72
2022/11/27 10:44:38;;;;;;;6.50;5.93;;;8.40;99.90;;;;;;6112638;23;20278;-72
2022/11/27 10:47:10;;;;;;;6.70;6.10;;;8.70;99.90;;;;;;6114789;23;20207;-72
2022/11/27 10:49:41;;;;;;;6.00;5.50;;;8.80;99.90;;;;;;6113847;23;20552;-73
2022/11/27 10:52:13;;;;;;;6.35;5.85;;;9.20;99.90;;;;;;6113996;23;20213;-72
2022/11/27 10:54:43;;;;;;;5.80;5.30;;;9.60;99.90;;;;;;6109289;23;20191;-73
2022/11/27 10:57:36;;;;;;;5.72;5.22;;;10.00;99.90;;;;;;6114901;23;20267;-73
2022/11/27 11:00:12;;;;;;;5.75;5.25;;;10.20;99.90;;;;;;6112293;23;20184;-72
2022/11/27 11:02:39;;;;;;;5.70;5.20;;;10.20;99.90;;;;;;6113388;23;20183;-73
2022/11/27 11:05:31;;;;;;;4.97;4.57;;;10.10;99.90;;;;;;6086859;23;20184;-73
2022/11/27 11:08:03;;;;;;;5.70;5.20;;;10.10;99.90;;;;;;6116421;23;20207;-72
2022/11/27 11:10:34;;;;;;;5.32;4.93;;;10.40;99.90;;;;;;6113522;23;20196;-73
2022/11/27 11:13:06;;;;;;;4.80;4.40;;;10.70;99.90;;;;;;6115503;23;20203;-73
2022/11/27 11:15:33;;;;;;;5.50;5.00;;;10.90;99.90;;;;;;6112812;23;20540;-73
2022/11/27 11:18:00;;;;;;;6.63;4.68;;;11.00;99.90;;;;;;6115885;23;20184;-72
2022/11/27 11:20:27;;;;;;;5.85;5.35;;;10.90;99.90;;;;;;6113004;23;20187;-73
2022/11/27 11:22:56;;;;;;;4.90;4.50;;;10.90;99.90;;;;;;6114227;23;20210;-72
2022/11/27 11:25:23;;;;;;;5.38;4.88;;;11.10;99.90;;;;;;6114744;23;20192;-73
2022/11/27 11:27:52;;;;;;;6.07;4.72;;;11.10;99.90;;;;;;6116870;23;20764;-73
2022/11/27 11:30:24;;;;;;;5.72;5.30;;;10.80;99.90;;;;;;6113249;23;20230;-73
2022/11/27 11:32:58;;;;;;;5.45;4.95;;;10.40;99.90;;;;;;6109402;23;20245;-74
2022/11/27 11:35:29;;;;;;;5.18;4.78;;;10.20;99.90;;;;;;6114886;23;20613;-72
2022/11/27 11:38:00;;;;;;;5.90;5.43;;;10.20;99.90;;;;;;6112145;23;20669;-73
2022/11/27 11:40:30;;;;;;;5.65;4.82;;;10.60;99.90;;;;;;6111411;23;20188;-75
2022/11/27 11:43:03;;;;;;;4.60;4.20;;;11.10;99.90;;;;;;6110641;23;20553;-73
2022/11/27 11:45:31;;;;;;;6.63;4.88;;;11.50;99.90;;;;;;6110307;23;20242;-73
2022/11/27 11:48:00;;;;;;;5.78;5.25;;;11.90;99.90;;;;;;6111420;23;20634;-73
2022/11/27 11:50:33;;;;;;;5.88;5.20;;;12.30;99.90;;;;;;6113866;23;20227;-73
2022/11/27 11:53:11;;;;;;;4.90;4.50;;;12.20;99.90;;;;;;6108789;23;20659;-72
2022/11/27 11:55:46;;;;;;;5.63;5.13;;;11.60;99.90;;;;;;6119530;23;20718;-72
2022/11/27 11:58:32;;;;;;;5.40;5.00;;;11.50;99.90;;;;;;6108537;23;20268;-72
2022/11/27 12:01:16;;;;;;;6.32;4.80;;;11.50;99.90;;;;;;6117494;23;20560;-72
2022/11/27 12:03:58;;;;;;;4.97;4.57;;;11.00;99.90;;;;;;6112083;23;20189;-72
2022/11/27 12:06:36;;;;;;;5.10;4.60;;;10.80;99.90;;;;;;6116025;23;20187;-72
2022/11/27 12:09:22;;;;;;;5.22;4.72;;;10.60;99.90;;;;;;6116874;23;20203;-72
2022/11/27 12:11:52;;;;;;;4.90;4.50;;;10.50;99.90;;;;;;6118592;23;20231;-72
2022/11/27 12:14:30;;;;;;;5.05;4.65;;;10.40;99.90;;;;;;6118565;23;20316;-73
2022/11/27 12:17:06;;;;;;;5.82;5.32;;;10.60;99.90;;;;;;6118805;23;20222;-73
2022/11/27 12:19:56;;;;;;;5.00;4.60;;;11.10;99.90;;;;;;6106379;23;20693;-72
2022/11/27 12:22:42;;;;;;;4.85;4.45;;;11.60;99.90;;;;;;6117193;23;20191;-72
2022/11/27 12:25:24;;;;;;;5.23;4.83;;;12.10;99.90;;;;;;6107541;23;20191;-72
2022/11/27 12:28:06;;;;;;;4.57;4.27;;;12.40;99.90;;;;;;6109903;23;20447;-73
2022/11/27 12:30:44;;;;;;;5.27;4.87;;;12.70;99.90;;;;;;6113383;23;20436;-72
2022/11/27 12:33:31;;;;;;;5.10;4.70;;;13.00;99.90;;;;;;6112671;23;20454;-73
2022/11/27 12:36:06;;;;;;;5.50;5.10;;;13.30;99.90;;;;;;6109159;23;20429;-73
2022/11/27 12:38:48;;;;;;;5.90;5.30;;;13.40;99.90;;;;;;6118103;23;20719;-73
2022/11/27 12:41:36;;;;;;;5.97;5.40;;;13.50;99.90;;;;;;6118042;23;20443;-73
2022/11/27 12:44:14;;;;;;;6.60;5.97;;;13.50;99.90;;;;;;6107406;23;20999;-72
2022/11/27 12:46:51;;;;;;;5.70;5.30;;;13.40;99.90;;;;;;6115934;23;20441;-80
2022/11/27 12:49:24;;;;;;;5.53;5.13;;;13.00;99.90;;;;;;6108001;23;20970;-73
2022/11/27 12:51:56;;;;;;;5.70;5.20;;;12.80;99.90;;;;;;6109115;23;20430;-72
2022/11/27 12:54:30;;;;;;;6.33;5.73;;;12.40;99.90;;;;;;6108490;23;20499;-72
2022/11/27 12:57:03;;;;;;;6.22;5.72;;;12.00;99.90;;;;;;6114249;23;20445;-72